Time;durP1;ratioP1;P1;durP2;ratioP2;P2;SDS_P1;SDS_P2;PMS_P1;PMS_P2;Temp;Humidity;BMP_temperature;BMP_pressure;BME280_temperature;BME280_humidity;BME280_pressure;Samples;Min_cycle;Max_cycle;Signal;HPM_P1;HPM_P2
2022/08/17 00:00:27;;;;;;;28.50;25.63;;;20.50;87.50;;;;;;5005907;28;20133;-70
2022/08/17 00:03:04;;;;;;;28.38;25.65;;;20.50;87.40;;;;;;5012736;28;20117;-70
2022/08/17 00:05:33;;;;;;;26.50;23.90;;;20.60;87.50;;;;;;5008528;28;20037;-68
2022/08/17 00:07:58;;;;;;;26.15;23.73;;;20.60;87.40;;;;;;5013515;28;20092;-69
2022/08/17 00:10:25;;;;;;;26.75;24.25;;;20.50;87.20;;;;;;5009900;28;20041;-70
2022/08/17 00:12:50;;;;;;;26.75;24.15;;;20.40;87.40;;;;;;5010215;28;20046;-69
2022/08/17 00:15:21;;;;;;;25.60;23.30;;;20.50;87.60;;;;;;5012137;28;20087;-69
2022/08/17 00:17:49;;;;;;;26.83;24.20;;;20.40;87.70;;;;;;5015470;28;20509;-69
2022/08/17 00:20:16;;;;;;;27.50;25.02;;;20.40;87.70;;;;;;5006779;28;20030;-70
2022/08/17 00:22:41;;;;;;;27.23;24.55;;;20.40;87.70;;;;;;5013241;28;20625;-69
2022/08/17 00:25:11;;;;;;;28.73;25.98;;;20.40;87.60;;;;;;5012283;28;20073;-69
2022/08/17 00:27:37;;;;;;;26.48;24.05;;;20.30;87.60;;;;;;5008383;28;20037;-69
2022/08/17 00:30:06;;;;;;;31.92;28.92;;;20.30;87.70;;;;;;5009032;28;20155;-70
2022/08/17 00:32:45;;;;;;;33.65;30.35;;;20.40;87.70;;;;;;5005681;28;20030;-70
2022/08/17 00:35:14;;;;;;;31.92;28.92;;;20.30;87.80;;;;;;5021820;28;20036;-71
2022/08/17 00:37:41;;;;;;;31.02;28.02;;;20.30;87.60;;;;;;5012390;28;20029;-69
2022/08/17 00:40:09;;;;;;;32.45;29.45;;;20.30;87.70;;;;;;5014340;28;20037;-70
2022/08/17 00:42:35;;;;;;;31.50;28.45;;;20.20;87.70;;;;;;5002103;28;20033;-72
2022/08/17 00:45:03;;;;;;;33.10;29.83;;;20.20;87.80;;;;;;5018097;28;20434;-69
2022/08/17 00:47:29;;;;;;;32.63;29.63;;;20.20;87.60;;;;;;5015534;28;20084;-69
2022/08/17 00:49:55;;;;;;;35.33;32.00;;;20.20;87.60;;;;;;5011236;28;20045;-70
2022/08/17 00:52:34;;;;;;;35.65;32.20;;;20.20;87.50;;;;;;5021163;28;21265;-70
2022/08/17 00:55:00;;;;;;;36.40;32.97;;;20.20;87.40;;;;;;5010882;28;20036;-70
2022/08/17 00:57:37;;;;;;;35.13;31.98;;;20.10;87.50;;;;;;5015263;28;20030;-70
2022/08/17 01:00:12;;;;;;;34.33;31.13;;;20.10;87.60;;;;;;5008657;28;20124;-71
2022/08/17 01:02:41;;;;;;;35.20;31.88;;;20.10;87.80;;;;;;4997226;28;20034;-70
2022/08/17 01:05:14;;;;;;;38.42;34.88;;;20.10;87.80;;;;;;5011655;28;20025;-70
2022/08/17 01:07:41;;;;;;;39.00;35.22;;;20.10;87.80;;;;;;5011574;28;20057;-69
2022/08/17 01:10:10;;;;;;;41.33;37.47;;;20.10;87.90;;;;;;5012292;28;20025;-69
2022/08/17 01:12:36;;;;;;;41.70;37.75;;;20.00;87.80;;;;;;5016292;28;20077;-69
2022/08/17 01:15:03;;;;;;;41.85;37.75;;;20.00;87.90;;;;;;5012471;28;20033;-69
2022/08/17 01:17:28;;;;;;;42.90;38.70;;;20.00;88.10;;;;;;5003714;28;20030;-70
2022/08/17 01:19:55;;;;;;;51.83;46.72;;;20.00;88.00;;;;;;5015041;28;20451;-69
2022/08/17 01:22:24;;;;;;;52.60;47.58;;;20.00;87.90;;;;;;5011770;28;20045;-70
2022/08/17 01:24:55;;;;;;;50.90;46.13;;;19.90;87.80;;;;;;5011359;28;20109;-69
2022/08/17 01:27:21;;;;;;;55.63;50.22;;;20.00;87.80;;;;;;5006134;28;20042;-69
2022/08/17 01:29:51;;;;;;;54.92;49.65;;;19.90;87.70;;;;;;5010841;28;20053;-70
2022/08/17 01:32:18;;;;;;;58.85;52.95;;;19.90;87.60;;;;;;5005869;28;20084;-69
2022/08/17 01:34:44;;;;;;;56.78;51.17;;;19.90;87.60;;;;;;5012478;28;20026;-70
2022/08/17 01:37:12;;;;;;;61.50;55.60;;;19.90;87.80;;;;;;5010057;28;20117;-69
2022/08/17 01:39:53;;;;;;;64.30;58.13;;;19.90;87.70;;;;;;5011160;28;20423;-69
2022/08/17 01:42:30;;;;;;;67.22;60.55;;;19.80;87.70;;;;;;5005848;28;20026;-70
2022/08/17 01:45:00;;;;;;;63.72;57.53;;;19.70;88.10;;;;;;5005112;28;20037;-69
2022/08/17 01:47:26;;;;;;;63.92;57.63;;;19.70;88.20;;;;;;5008841;28;20521;-71
2022/08/17 01:49:52;;;;;;;62.38;56.22;;;19.70;88.30;;;;;;5012689;28;20038;-69
2022/08/17 01:52:20;;;;;;;67.72;61.05;;;19.80;88.40;;;;;;5011347;28;20031;-69
2022/08/17 01:54:50;;;;;;;69.93;62.92;;;19.80;88.00;;;;;;5015669;28;20040;-69
2022/08/17 01:57:16;;;;;;;71.50;64.60;;;19.70;88.30;;;;;;5011896;28;20238;-70
2022/08/17 01:59:41;;;;;;;68.25;61.63;;;19.60;88.30;;;;;;5018207;28;20369;-69
2022/08/17 02:02:07;;;;;;;70.97;64.25;;;19.60;88.60;;;;;;5005868;28;20465;-69
2022/08/17 02:04:33;;;;;;;74.53;66.82;;;19.70;88.60;;;;;;5012153;28;20037;-69
2022/08/17 02:06:59;;;;;;;72.40;65.40;;;19.70;88.50;;;;;;5018232;28;20022;-69
2022/08/17 02:09:28;;;;;;;70.30;63.70;;;19.70;88.40;;;;;;5014467;28;20040;-69
2022/08/17 02:11:55;;;;;;;78.15;70.57;;;19.80;88.50;;;;;;5013105;28;20046;-69
2022/08/17 02:14:22;;;;;;;68.18;61.33;;;19.80;88.50;;;;;;5009002;28;20474;-71
2022/08/17 02:16:48;;;;;;;74.22;67.05;;;19.80;88.40;;;;;;5016266;28;20489;-69
2022/08/17 02:19:14;;;;;;;68.75;62.03;;;19.80;88.50;;;;;;5009208;28;20118;-69
2022/08/17 02:21:43;;;;;;;70.05;63.35;;;19.80;88.50;;;;;;5010864;28;20038;-69
2022/08/17 02:24:14;;;;;;;71.30;64.47;;;19.90;88.50;;;;;;5015039;28;20033;-69
2022/08/17 02:26:40;;;;;;;72.68;65.60;;;19.90;88.50;;;;;;5025748;28;20033;-69
2022/08/17 02:29:06;;;;;;;68.68;62.08;;;20.00;88.50;;;;;;5022546;28;20141;-69
2022/08/17 02:31:31;;;;;;;70.05;63.28;;;20.00;88.20;;;;;;5014961;28;20172;-69
2022/08/17 02:33:57;;;;;;;78.53;70.57;;;20.00;88.20;;;;;;5014272;28;20489;-68
2022/08/17 02:36:23;;;;;;;67.82;61.25;;;20.00;88.40;;;;;;5010093;28;20026;-71
2022/08/17 02:38:49;;;;;;;71.10;64.00;;;19.90;88.50;;;;;;5014627;28;20036;-69
2022/08/17 02:41:14;;;;;;;66.43;59.92;;;19.90;88.70;;;;;;5010200;28;20381;-69
2022/08/17 02:43:40;;;;;;;73.95;66.80;;;19.90;88.70;;;;;;5021351;28;20025;-70
2022/08/17 02:46:06;;;;;;;70.18;63.28;;;20.00;88.90;;;;;;5015540;28;20484;-70
2022/08/17 02:48:31;;;;;;;74.07;66.90;;;20.00;88.90;;;;;;5010292;28;20037;-69
2022/08/17 02:50:58;;;;;;;72.82;65.75;;;19.90;88.70;;;;;;5013838;28;20025;-70
2022/08/17 02:53:23;;;;;;;76.03;68.55;;;20.00;88.90;;;;;;5011681;28;20029;-71
2022/08/17 02:55:49;;;;;;;76.70;69.22;;;19.90;88.90;;;;;;5005106;28;20034;-70
2022/08/17 02:58:17;;;;;;;78.75;71.10;;;19.90;88.70;;;;;;5017041;28;20030;-69
2022/08/17 03:00:46;;;;;;;83.28;74.95;;;19.90;88.90;;;;;;5008041;28;20057;-69
2022/08/17 03:03:17;;;;;;;82.38;74.30;;;19.90;89.10;;;;;;5014363;28;20021;-69
2022/08/17 03:05:46;;;;;;;86.28;77.50;;;19.90;89.20;;;;;;5017508;28;20038;-69
2022/08/17 03:08:12;;;;;;;80.47;72.18;;;19.90;89.10;;;;;;5009015;28;20022;-69
2022/08/17 03:10:38;;;;;;;81.47;73.10;;;19.90;89.30;;;;;;5008485;28;20121;-72
2022/08/17 03:13:04;;;;;;;90.60;80.95;;;20.00;89.40;;;;;;5007997;28;20041;-69
2022/08/17 03:15:32;;;;;;;84.20;75.55;;;20.00;89.70;;;;;;5010676;28;20029;-71
2022/08/17 03:17:59;;;;;;;77.60;69.70;;;20.00;89.60;;;;;;5013048;28;20160;-69
2022/08/17 03:20:29;;;;;;;76.68;69.20;;;19.90;89.60;;;;;;5025189;28;20123;-69
2022/08/17 03:22:56;;;;;;;74.93;67.40;;;19.90;89.50;;;;;;5010674;28;20252;-69
2022/08/17 03:25:29;;;;;;;80.60;72.65;;;19.90;89.70;;;;;;5019646;28;20099;-69
2022/08/17 03:27:55;;;;;;;73.40;65.95;;;20.00;89.80;;;;;;5006475;28;20420;-70
2022/08/17 03:30:21;;;;;;;72.95;65.45;;;19.90;89.80;;;;;;5009222;28;20048;-69
2022/08/17 03:32:50;;;;;;;75.55;67.90;;;20.00;90.00;;;;;;5013070;28;20556;-70
2022/08/17 03:35:18;;;;;;;72.13;64.95;;;19.90;89.60;;;;;;5013020;28;20026;-71
2022/08/17 03:37:44;;;;;;;80.70;72.50;;;19.90;89.70;;;;;;5015662;28;20043;-69
2022/08/17 03:40:10;;;;;;;79.32;71.25;;;19.90;89.70;;;;;;5021506;28;20129;-71
2022/08/17 03:42:39;;;;;;;72.78;65.28;;;19.90;89.70;;;;;;5023246;28;20042;-69
2022/08/17 03:45:09;;;;;;;75.47;67.93;;;19.80;89.70;;;;;;5015848;28;20496;-70
2022/08/17 03:58:36;;;;;;;72.43;64.97;;;19.90;89.90;;;;;;5017855;28;20692;-69
2022/08/17 04:01:04;;;;;;;77.70;69.95;;;19.90;89.90;;;;;;5008660;28;20037;-69
2022/08/17 04:03:30;;;;;;;84.07;75.60;;;19.90;89.90;;;;;;5011579;28;20030;-69
2022/08/17 04:05:55;;;;;;;85.43;76.70;;;19.80;89.80;;;;;;5012785;28;20132;-69
2022/08/17 04:08:21;;;;;;;85.72;76.60;;;19.80;89.90;;;;;;5016504;28;20026;-69
2022/08/17 04:10:47;;;;;;;86.53;77.68;;;19.70;90.00;;;;;;5010793;28;20351;-69
2022/08/17 04:13:13;;;;;;;87.57;78.55;;;19.70;90.10;;;;;;5012201;28;20489;-69
2022/08/17 04:15:39;;;;;;;91.65;82.32;;;19.70;90.10;;;;;;5016092;28;20298;-68
2022/08/17 04:18:05;;;;;;;86.85;77.63;;;19.70;90.00;;;;;;5017566;28;20372;-70
2022/08/17 04:20:30;;;;;;;86.47;77.70;;;19.60;90.20;;;;;;5009194;28;20092;-70
2022/08/17 04:23:00;;;;;;;97.03;86.75;;;19.60;90.20;;;;;;5019456;28;20025;-69
2022/08/17 04:25:27;;;;;;;92.97;83.45;;;19.60;90.10;;;;;;5020976;28;20034;-70
2022/08/17 04:27:54;;;;;;;94.10;84.20;;;19.60;90.20;;;;;;5020784;28;20129;-68
2022/08/17 04:30:20;;;;;;;97.18;87.00;;;19.60;90.30;;;;;;5010311;28;20476;-69
2022/08/17 04:32:57;;;;;;;102.88;91.82;;;19.50;90.20;;;;;;5012450;28;20029;-69
2022/08/17 04:35:27;;;;;;;99.85;89.70;;;19.60;90.20;;;;;;5016915;28;20120;-69
2022/08/17 04:37:53;;;;;;;104.65;93.38;;;19.60;90.20;;;;;;5014331;28;20032;-68
2022/08/17 04:43:13;;;;;;;101.65;91.00;;;19.60;90.40;;;;;;5009961;28;20076;-69
2022/08/17 04:45:45;;;;;;;101.78;91.10;;;19.50;90.40;;;;;;5002869;28;20041;-69
2022/08/17 04:48:12;;;;;;;105.78;94.22;;;19.60;90.30;;;;;;5014327;28;20030;-68
2022/08/17 04:50:42;;;;;;;108.07;96.25;;;19.60;90.20;;;;;;5022540;28;20033;-68
2022/08/17 04:53:08;;;;;;;105.70;94.38;;;19.60;90.30;;;;;;5016272;28;20401;-69
2022/08/17 04:55:34;;;;;;;106.50;95.32;;;19.60;90.40;;;;;;5007573;28;20084;-69
2022/08/17 04:58:00;;;;;;;108.43;97.15;;;19.60;90.40;;;;;;5007722;28;20080;-71
2022/08/17 05:00:26;;;;;;;105.93;94.55;;;19.50;90.40;;;;;;5012694;28;20045;-69
2022/08/17 05:02:54;;;;;;;111.72;99.95;;;19.60;90.50;;;;;;5013457;28;20477;-69
2022/08/17 05:05:23;;;;;;;110.60;97.93;;;19.60;90.40;;;;;;5011165;28;20117;-70
2022/08/17 05:07:56;;;;;;;108.55;97.10;;;19.50;90.40;;;;;;5015035;28;20234;-72
2022/08/17 05:10:24;;;;;;;108.93;97.20;;;19.60;90.50;;;;;;5010226;28;20041;-69
2022/08/17 05:13:06;;;;;;;107.93;96.25;;;19.50;90.50;;;;;;5004460;28;20477;-70
2022/08/17 05:15:33;;;;;;;116.63;103.90;;;19.60;90.60;;;;;;5018656;28;20034;-70
2022/08/17 05:17:59;;;;;;;110.03;97.97;;;19.60;90.50;;;;;;5015160;28;20392;-69
2022/08/17 05:20:26;;;;;;;113.72;101.60;;;19.60;90.60;;;;;;5008668;28;20042;-71
2022/08/17 05:22:58;;;;;;;106.72;95.30;;;19.60;90.60;;;;;;5007760;28;20102;-69
2022/08/17 05:25:29;;;;;;;113.15;101.28;;;19.60;90.70;;;;;;5016903;28;20060;-70
2022/08/17 05:27:55;;;;;;;111.38;99.32;;;19.70;90.80;;;;;;5012572;28;20497;-69
2022/08/17 05:30:22;;;;;;;110.97;99.00;;;19.70;90.80;;;;;;5008865;28;20124;-69
2022/08/17 05:32:59;;;;;;;109.72;98.00;;;19.70;90.70;;;;;;5015598;28;20164;-69
2022/08/17 05:35:28;;;;;;;113.80;101.63;;;19.80;90.80;;;;;;5004467;28;20030;-69
2022/08/17 05:37:54;;;;;;;108.50;96.90;;;19.80;90.60;;;;;;5007159;28;20497;-70
2022/08/17 05:40:21;;;;;;;110.18;98.35;;;19.70;90.70;;;;;;5018503;28;20114;-69
2022/08/17 05:42:48;;;;;;;110.85;99.18;;;19.70;90.60;;;;;;5010481;28;20477;-68
2022/08/17 05:45:17;;;;;;;106.85;95.72;;;19.70;90.60;;;;;;5010637;28;20057;-69
2022/08/17 05:47:45;;;;;;;112.85;100.93;;;19.70;90.60;;;;;;5019876;28;20244;-71
2022/08/17 05:50:24;;;;;;;100.45;89.78;;;19.80;90.60;;;;;;5005950;28;20679;-70
2022/08/17 05:53:21;;;;;;;105.68;94.50;;;19.80;90.60;;;;;;5018580;28;20038;-69
2022/08/17 05:56:10;;;;;;;108.03;96.53;;;19.80;90.60;;;;;;5014297;28;20030;-71
2022/08/17 05:58:51;;;;;;;105.03;93.75;;;19.80;90.60;;;;;;5009658;28;20509;-70
2022/08/17 06:01:33;;;;;;;106.85;95.47;;;19.80;90.60;;;;;;5007391;28;20282;-69
2022/08/17 06:04:28;;;;;;;101.55;90.70;;;19.80;90.40;;;;;;5040089;28;20026;-69
2022/08/17 06:07:02;;;;;;;107.53;96.10;;;19.90;90.60;;;;;;5020009;28;20469;-69
2022/08/17 06:09:44;;;;;;;109.60;97.82;;;19.90;90.70;;;;;;5004716;28;20466;-69
2022/08/17 06:12:25;;;;;;;116.28;103.63;;;20.00;90.70;;;;;;5010875;28;20502;-69
2022/08/17 06:14:58;;;;;;;114.75;102.43;;;19.80;90.40;;;;;;5015497;28;20478;-69
2022/08/17 06:17:25;;;;;;;119.50;106.85;;;19.90;90.70;;;;;;5016365;28;20041;-71
2022/08/17 06:19:58;;;;;;;125.70;111.45;;;19.80;90.60;;;;;;5012775;28;20029;-69
2022/08/17 06:22:31;;;;;;;127.78;113.13;;;19.70;91.00;;;;;;5016252;28;20465;-70
2022/08/17 06:25:02;;;;;;;134.32;117.10;;;19.70;91.30;;;;;;5044293;28;20029;-70
2022/08/17 06:27:34;;;;;;;138.52;120.90;;;19.60;91.50;;;;;;5007105;28;20033;-68
2022/08/17 06:30:19;;;;;;;142.90;122.60;;;19.60;91.60;;;;;;5009515;28;20042;-68
2022/08/17 06:32:46;;;;;;;;;;;19.50;91.70;;;;;;5006485;28;20095;-69
2022/08/17 06:35:15;;;;;;;146.18;121.30;;;19.50;91.90;;;;;;5008998;28;19909;-69
2022/08/17 06:38:13;;;;;;;157.65;123.80;;;19.50;92.10;;;;;;5014250;28;20116;-70
2022/08/17 06:40:47;;;;;;;161.48;127.75;;;19.60;92.20;;;;;;5000350;28;20440;-70
2022/08/17 06:43:39;;;;;;;160.00;129.05;;;19.50;92.20;;;;;;5009259;28;20120;-69
2022/08/17 06:46:11;;;;;;;153.00;124.85;;;19.50;92.20;;;;;;5013946;28;20473;-71
2022/08/17 06:48:51;;;;;;;160.27;129.88;;;19.50;92.50;;;;;;5016687;28;20389;-69
2022/08/17 06:51:34;;;;;;;164.60;130.73;;;19.60;92.50;;;;;;5009433;28;20044;-69
2022/08/17 06:54:17;;;;;;;145.45;121.65;;;19.70;92.60;;;;;;5052116;28;20083;-70
2022/08/17 06:57:12;;;;;;;153.48;122.32;;;19.60;92.30;;;;;;5007566;28;20412;-69
2022/08/17 06:59:51;;;;;;;157.30;125.45;;;19.60;92.20;;;;;;5010723;28;20021;-69
2022/08/17 07:02:45;;;;;;;145.18;122.15;;;19.60;92.30;;;;;;5004818;28;20141;-70
2022/08/17 07:05:15;;;;;;;154.43;127.45;;;19.70;92.20;;;;;;5012121;28;20595;-69
2022/08/17 07:08:04;;;;;;;149.43;123.30;;;19.70;92.40;;;;;;5014914;28;20033;-70
2022/08/17 07:10:36;;;;;;;151.48;124.47;;;19.70;92.30;;;;;;5018100;28;20484;-72
2022/08/17 07:13:18;;;;;;;150.40;124.80;;;19.80;92.20;;;;;;5019576;28;20549;-71
2022/08/17 07:15:48;;;;;;;149.60;123.07;;;19.80;92.30;;;;;;5015274;28;20038;-69
2022/08/17 07:18:14;;;;;;;144.85;121.00;;;19.80;92.30;;;;;;5012454;28;20041;-69
2022/08/17 07:20:42;;;;;;;147.50;123.68;;;19.80;92.20;;;;;;5011780;28;20049;-69
2022/08/17 07:23:25;;;;;;;130.93;115.28;;;19.90;92.30;;;;;;5023752;28;20032;-69
2022/08/17 07:25:51;;;;;;;125.32;110.13;;;20.00;92.30;;;;;;5024761;28;20469;-70
2022/08/17 07:28:21;;;;;;;123.43;108.40;;;19.90;92.10;;;;;;5044667;28;20080;-72
2022/08/17 07:30:52;;;;;;;112.80;100.47;;;19.90;92.10;;;;;;5011811;28;20038;-71
2022/08/17 07:33:25;;;;;;;100.45;89.40;;;20.00;92.10;;;;;;5001820;28;20462;-70
2022/08/17 07:35:51;;;;;;;95.55;85.00;;;19.90;92.00;;;;;;5013685;28;20034;-70
2022/08/17 07:38:31;;;;;;;91.80;82.22;;;19.90;91.90;;;;;;5013347;28;20380;-70
2022/08/17 07:41:00;;;;;;;98.15;87.65;;;20.00;91.80;;;;;;5021583;28;20046;-70
2022/08/17 07:43:38;;;;;;;94.60;84.50;;;19.90;91.80;;;;;;5005619;28;20081;-70
2022/08/17 07:49:13;;;;;;;90.05;80.38;;;19.60;91.80;;;;;;5013936;28;20041;-70
2022/08/17 07:51:42;;;;;;;87.88;78.47;;;19.60;91.80;;;;;;5010290;28;20037;-70
2022/08/17 07:54:14;;;;;;;90.18;80.53;;;19.80;91.50;;;;;;5026338;28;20044;-71
2022/08/17 07:56:47;;;;;;;90.70;81.15;;;19.80;91.60;;;;;;5023393;28;20026;-70
2022/08/17 07:59:22;;;;;;;80.67;72.33;;;19.90;91.50;;;;;;5018944;28;20034;-69
2022/08/17 08:01:53;;;;;;;68.63;61.47;;;19.90;91.40;;;;;;5018913;28;20442;-70
2022/08/17 08:04:35;;;;;;;69.07;61.88;;;19.90;90.90;;;;;;5014023;28;20456;-71
2022/08/17 08:07:06;;;;;;;62.80;56.28;;;19.80;90.80;;;;;;5019621;28;20034;-71
2022/08/17 08:09:35;;;;;;;57.83;51.90;;;19.70;90.70;;;;;;5011063;28;20049;-70
2022/08/17 08:12:33;;;;;;;55.97;50.03;;;19.80;91.00;;;;;;5008123;28;20045;-73
2022/08/17 08:14:59;;;;;;;53.38;47.95;;;19.90;90.70;;;;;;5008566;28;20029;-70
2022/08/17 08:17:35;;;;;;;50.58;45.47;;;19.90;90.90;;;;;;5008182;28;20481;-70
2022/08/17 08:20:07;;;;;;;51.10;45.88;;;20.00;90.90;;;;;;5007291;28;20358;-72
2022/08/17 08:23:01;;;;;;;57.55;51.70;;;20.00;90.80;;;;;;5013549;28;20030;-71
2022/08/17 08:25:49;;;;;;;52.75;47.45;;;20.00;90.70;;;;;;5049795;28;20425;-71
2022/08/17 08:28:41;;;;;;;49.20;44.42;;;20.00;90.60;;;;;;5041653;28;20361;-71
2022/08/17 08:31:24;;;;;;;48.20;43.35;;;20.00;90.40;;;;;;5004725;28;20075;-70
2022/08/17 08:34:01;;;;;;;52.30;47.03;;;20.00;90.50;;;;;;5012218;28;20037;-70
2022/08/17 08:36:55;;;;;;;56.92;50.53;;;20.10;90.50;;;;;;5011833;28;20385;-70
2022/08/17 08:39:33;;;;;;;54.17;48.78;;;20.10;90.30;;;;;;5003197;28;20041;-71
2022/08/17 08:42:18;;;;;;;54.22;48.85;;;20.20;90.40;;;;;;5018606;28;20057;-71
2022/08/17 08:45:10;;;;;;;46.80;42.38;;;20.40;90.00;;;;;;5014806;28;20536;-70
2022/08/17 08:48:31;;;;;;;47.33;42.58;;;20.50;89.70;;;;;;4976362;28;20041;-70
2022/08/17 08:51:08;;;;;;;49.80;44.83;;;20.60;89.70;;;;;;4958860;28;20046;-70
2022/08/17 08:53:47;;;;;;;48.03;43.08;;;20.90;89.70;;;;;;4999476;28;20026;-70
2022/08/17 08:56:48;;;;;;;47.83;43.17;;;20.90;88.10;;;;;;4981047;28;20026;-71
2022/08/17 08:59:25;;;;;;;46.50;42.05;;;20.70;89.00;;;;;;4984766;28;20975;-71
2022/08/17 09:02:24;;;;;;;45.67;41.25;;;20.60;88.60;;;;;;4998989;28;20177;-70
2022/08/17 09:05:11;;;;;;;49.70;44.80;;;20.80;89.50;;;;;;4999126;28;20030;-70
2022/08/17 09:07:42;;;;;;;49.65;44.95;;;21.10;89.60;;;;;;4991208;28;20161;-70
2022/08/17 09:10:29;;;;;;;46.88;42.45;;;21.10;88.40;;;;;;4992502;28;20037;-71
2022/08/17 09:13:41;;;;;;;47.53;42.92;;;21.10;87.90;;;;;;4986613;28;20039;-71
2022/08/17 09:16:13;;;;;;;43.85;39.72;;;21.40;88.90;;;;;;4983991;28;20030;-71
2022/08/17 09:18:50;;;;;;;38.20;34.40;;;21.80;88.10;;;;;;5001196;28;20034;-70
2022/08/17 09:21:30;;;;;;;35.45;32.17;;;22.10;85.40;;;;;;4985749;28;20041;-71
2022/08/17 09:24:08;;;;;;;31.48;28.48;;;22.10;85.30;;;;;;4993978;28;20034;-70
2022/08/17 09:26:57;;;;;;;29.30;26.70;;;22.10;84.10;;;;;;4984069;28;20089;-71
2022/08/17 09:29:27;;;;;;;28.00;25.45;;;22.40;84.10;;;;;;4988019;28;20030;-71
2022/08/17 09:32:00;;;;;;;27.77;24.98;;;22.60;83.20;;;;;;4985549;28;20112;-71
2022/08/17 09:34:49;;;;;;;25.30;22.83;;;23.00;82.60;;;;;;4987885;28;20349;-71
2022/08/17 09:37:31;;;;;;;22.63;20.55;;;23.20;80.80;;;;;;4990329;28;20041;-70
2022/08/17 09:40:08;;;;;;;24.48;22.20;;;23.30;78.20;;;;;;4988631;28;20061;-72
2022/08/17 09:43:04;;;;;;;22.73;20.58;;;23.70;78.20;;;;;;5000474;28;20042;-71
2022/08/17 09:45:56;;;;;;;21.58;19.38;;;23.90;77.00;;;;;;4994714;28;20045;-70
2022/08/17 09:48:47;;;;;;;21.15;19.15;;;23.80;74.40;;;;;;4987300;28;20038;-71
2022/08/17 09:51:20;;;;;;;25.00;22.60;;;23.50;73.50;;;;;;4985964;28;20045;-70
2022/08/17 09:53:46;;;;;;;23.58;21.38;;;23.20;76.60;;;;;;5000602;28;20034;-70
2022/08/17 09:56:35;;;;;;;26.90;24.45;;;23.30;76.40;;;;;;5001062;28;20045;-69
2022/08/17 09:59:15;;;;;;;25.95;23.52;;;23.60;76.40;;;;;;4982443;28;20042;-70
2022/08/17 10:01:49;;;;;;;26.95;24.30;;;23.60;74.80;;;;;;4994969;28;20085;-70
2022/08/17 10:04:18;;;;;;;26.80;24.00;;;23.60;75.00;;;;;;4990444;28;20077;-71
2022/08/17 10:07:08;;;;;;;24.65;22.25;;;23.80;75.00;;;;;;4995153;28;20252;-70
2022/08/17 10:09:57;;;;;;;25.08;22.67;;;23.90;74.60;;;;;;5018317;28;20084;-70
2022/08/17 10:12:47;;;;;;;26.27;23.77;;;23.90;75.60;;;;;;4985468;28;20051;-70
2022/08/17 10:15:45;;;;;;;26.55;24.08;;;23.90;75.00;;;;;;4986104;28;20030;-71
2022/08/17 10:18:44;;;;;;;29.50;26.58;;;23.80;74.80;;;;;;4999798;28;20056;-70
2022/08/17 10:27:02;;;;;;;29.65;26.95;;;23.10;77.00;;;;;;5006872;28;20509;-70
2022/08/17 10:29:46;;;;;;;29.05;26.33;;;23.20;76.50;;;;;;5001411;28;20046;-71
2022/08/17 10:32:15;;;;;;;;;;;23.20;76.80;;;;;;4991382;28;20042;-70
2022/08/17 10:35:15;;;;;;;33.88;30.75;;;23.10;77.40;;;;;;4998717;28;19959;-70
2022/08/17 10:37:41;;;;;;;33.30;30.05;;;23.10;76.90;;;;;;5020068;28;20113;-71
2022/08/17 10:40:16;;;;;;;31.98;29.13;;;23.20;77.90;;;;;;4992231;28;20152;-70
2022/08/17 10:42:50;;;;;;;32.15;29.08;;;23.20;77.60;;;;;;5000537;28;20038;-70
2022/08/17 10:45:45;;;;;;;29.15;26.45;;;23.30;76.70;;;;;;4991693;28;20023;-71
2022/08/17 10:48:11;;;;;;;;;;;23.50;78.10;;;;;;4993624;28;20405;-71
2022/08/17 10:50:54;;;;;;;32.13;29.15;;;23.50;78.80;;;;;;4998925;28;19924;-70
2022/08/17 10:53:32;;;;;;;33.10;30.00;;;23.60;78.60;;;;;;4996453;28;20117;-71
2022/08/17 10:56:13;;;;;;;34.33;31.15;;;23.50;78.00;;;;;;5004712;28;20038;-70
2022/08/17 10:58:59;;;;;;;36.92;33.42;;;23.50;77.60;;;;;;4989095;28;20049;-70
2022/08/17 11:01:31;;;;;;;35.38;32.08;;;23.40;76.70;;;;;;4998475;28;20042;-70
2022/08/17 11:04:02;;;;;;;36.38;33.08;;;23.30;76.60;;;;;;5009189;28;20039;-70
2022/08/17 11:06:48;;;;;;;35.35;32.05;;;23.20;76.30;;;;;;4991266;28;20038;-71
2022/08/17 11:09:33;;;;;;;35.95;32.65;;;23.10;77.80;;;;;;4987940;28;20552;-71
2022/08/17 11:12:27;;;;;;;34.92;31.60;;;23.10;77.10;;;;;;4994658;28;20056;-70
2022/08/17 11:15:20;;;;;;;38.90;35.40;;;23.10;77.60;;;;;;4999460;28;20512;-71
2022/08/17 11:18:05;;;;;;;40.28;36.72;;;23.10;78.20;;;;;;4990112;28;20048;-70
2022/08/17 11:20:53;;;;;;;37.65;34.40;;;22.80;78.80;;;;;;4992761;28;20045;-73
2022/08/17 11:23:36;;;;;;;34.63;31.35;;;22.90;78.50;;;;;;4991092;28;20080;-70
2022/08/17 11:26:17;;;;;;;33.58;30.55;;;23.10;78.50;;;;;;4993079;28;20027;-70
2022/08/17 11:28:49;;;;;;;33.88;30.77;;;23.20;78.20;;;;;;4990850;28;20042;-70
2022/08/17 11:31:39;;;;;;;35.00;31.70;;;23.40;78.60;;;;;;4986742;28;20042;-70
2022/08/17 11:34:17;;;;;;;32.67;29.67;;;23.40;76.80;;;;;;5024671;28;20102;-71
2022/08/17 11:37:05;;;;;;;34.08;31.02;;;23.30;76.90;;;;;;4995462;28;20393;-72
2022/08/17 11:39:42;;;;;;;32.45;29.52;;;23.50;77.00;;;;;;4997663;28;20037;-72
2022/08/17 11:42:33;;;;;;;31.48;28.45;;;23.60;76.10;;;;;;5004797;28;20050;-71
2022/08/17 11:45:08;;;;;;;32.33;29.30;;;23.70;76.10;;;;;;4998886;28;20042;-70
2022/08/17 11:53:37;;;;;;;33.45;30.25;;;24.10;74.40;;;;;;4989753;28;20052;-70
2022/08/17 11:56:08;;;;;;;32.55;29.25;;;24.30;74.10;;;;;;5004016;28;20045;-71
2022/08/17 11:58:38;;;;;;;32.22;29.15;;;24.60;74.40;;;;;;4991101;28;20121;-70
2022/08/17 12:01:08;;;;;;;32.90;29.90;;;24.80;73.70;;;;;;4996951;28;20048;-72
2022/08/17 12:03:35;;;;;;;37.10;33.70;;;24.80;72.50;;;;;;4993627;28;20034;-70
2022/08/17 12:06:16;;;;;;;39.78;36.17;;;25.00;72.30;;;;;;4991701;28;20076;-72
2022/08/17 12:08:53;;;;;;;37.20;33.67;;;25.00;70.40;;;;;;4997809;28;20076;-70
2022/08/17 12:11:27;;;;;;;41.35;37.53;;;25.10;70.20;;;;;;4997013;28;20065;-70
2022/08/17 12:13:56;;;;;;;38.60;35.05;;;25.10;72.20;;;;;;4994103;28;20046;-70
2022/08/17 12:16:23;;;;;;;42.78;38.80;;;25.00;70.50;;;;;;4995709;28;20112;-70
2022/08/17 12:19:18;;;;;;;37.85;34.50;;;25.00;70.80;;;;;;4993482;28;20042;-70
2022/08/17 12:22:03;;;;;;;40.00;36.40;;;24.80;71.10;;;;;;5006907;28;20177;-70
2022/08/17 12:24:46;;;;;;;38.40;34.80;;;24.90;72.80;;;;;;5009464;28;20561;-70
2022/08/17 12:27:19;;;;;;;35.85;32.55;;;24.80;73.30;;;;;;4993377;28;20030;-70
2022/08/17 12:29:45;;;;;;;37.50;34.03;;;24.70;72.40;;;;;;4997310;28;20045;-71
2022/08/17 12:32:19;;;;;;;33.92;30.95;;;24.70;70.90;;;;;;4996437;28;20042;-71
2022/08/17 12:34:47;;;;;;;40.22;36.58;;;24.80;72.30;;;;;;4987763;28;20046;-70
2022/08/17 12:37:23;;;;;;;33.33;30.20;;;24.80;71.60;;;;;;4999063;28;20120;-70
2022/08/17 12:40:07;;;;;;;36.88;33.40;;;24.80;72.40;;;;;;4996854;28;20030;-70
2022/08/17 12:42:36;;;;;;;38.22;34.75;;;24.80;72.50;;;;;;4993611;28;20060;-70
2022/08/17 12:45:19;;;;;;;36.92;33.40;;;24.70;72.30;;;;;;4988914;28;20114;-70
2022/08/17 12:47:44;;;;;;;35.38;32.08;;;24.50;71.70;;;;;;4980868;28;20106;-70
2022/08/17 12:50:13;;;;;;;34.90;31.60;;;24.10;73.50;;;;;;4987653;28;20050;-70
2022/08/17 12:52:42;;;;;;;39.38;35.67;;;24.00;75.30;;;;;;4986703;28;20038;-70
2022/08/17 12:55:21;;;;;;;21.92;19.83;;;23.90;76.00;;;;;;4995650;28;20030;-70
2022/08/17 12:57:50;;;;;;;17.55;15.77;;;22.90;74.70;;;;;;4978474;28;20045;-69
2022/08/17 13:00:19;;;;;;;17.92;16.20;;;22.40;76.10;;;;;;4990191;28;20034;-70
2022/08/17 13:02:49;;;;;;;21.13;19.13;;;22.30;76.20;;;;;;4989901;28;20037;-69
2022/08/17 13:05:35;;;;;;;23.98;21.67;;;22.10;78.00;;;;;;5000193;28;20030;-70
2022/08/17 13:08:22;;;;;;;25.95;23.65;;;21.90;79.20;;;;;;5000043;28;20566;-72
2022/08/17 13:11:00;;;;;;;29.30;26.60;;;21.80;80.00;;;;;;4996710;28;20056;-71
2022/08/17 13:13:29;;;;;;;32.25;29.17;;;21.60;80.70;;;;;;5004815;28;20874;-70
2022/08/17 13:16:01;;;;;;;34.33;31.13;;;21.60;80.90;;;;;;4990941;28;20546;-70
2022/08/17 13:19:13;;;;;;;34.33;31.23;;;21.40;82.10;;;;;;4998013;28;20026;-72
2022/08/17 13:21:51;;;;;;;38.35;34.65;;;21.50;82.60;;;;;;4975865;28;20066;-71
2022/08/17 13:24:25;;;;;;;38.03;34.42;;;21.70;81.70;;;;;;4996771;28;20088;-70
2022/08/17 13:27:06;;;;;;;40.25;36.55;;;21.80;81.40;;;;;;4996124;28;20459;-70
2022/08/17 13:29:43;;;;;;;38.50;34.85;;;22.10;80.30;;;;;;4987608;28;20096;-71